createdAt,value
2018-04-17T00:02:13.915Z,6.87
2018-04-17T00:04:41.449Z,7.90
2018-04-17T00:07:08.988Z,7.37
2018-04-17T00:09:37.264Z,9.57
2018-04-17T00:12:05.568Z,11.53
2018-04-17T00:14:33.871Z,8.43
2018-04-17T00:17:01.396Z,8.70
2018-04-17T00:19:28.916Z,8.37
2018-04-17T00:21:56.453Z,8.97
2018-04-17T00:24:23.972Z,7.40
2018-04-17T00:26:51.507Z,7.70
2018-04-17T00:29:19.822Z,10.27
2018-04-17T00:31:47.353Z,7.97
2018-04-17T00:34:15.652Z,8.77
2018-04-17T00:36:43.935Z,8.20
2018-04-17T00:39:11.466Z,9.57
2018-04-17T00:41:39.009Z,8.60
2018-04-17T00:44:06.537Z,10.90
2018-04-17T00:46:34.065Z,16.97
2018-04-17T00:49:01.615Z,9.87
2018-04-17T00:51:29.152Z,10.80
2018-04-17T00:53:57.610Z,12.07
2018-04-17T00:56:25.145Z,11.43
2018-04-17T00:58:52.665Z,8.87
2018-04-17T01:01:20.215Z,9.13
2018-04-17T01:03:47.730Z,6.00
2018-04-17T01:06:15.263Z,7.77
2018-04-17T01:08:42.804Z,7.97
2018-04-17T01:11:10.353Z,8.03
2018-04-17T01:13:37.902Z,11.70
2018-04-17T01:16:05.429Z,11.40
2018-04-17T01:18:32.959Z,8.87
2018-04-17T01:21:00.481Z,6.37
2018-04-17T01:23:28.008Z,11.37
2018-04-17T01:25:55.530Z,9.60
2018-04-17T01:28:23.076Z,6.93
2018-04-17T01:30:50.611Z,8.07
2018-04-17T01:33:18.145Z,7.30
2018-04-17T01:35:45.670Z,7.83
2018-04-17T01:38:13.192Z,5.83
2018-04-17T01:40:40.705Z,7.13
2018-04-17T01:43:08.983Z,8.33
2018-04-17T01:45:36.515Z,8.53
2018-04-17T01:48:04.058Z,8.50
2018-04-17T01:50:31.577Z,9.47
2018-04-17T01:52:59.105Z,6.03
2018-04-17T01:55:26.647Z,12.17
2018-04-17T01:57:54.181Z,6.87
2018-04-17T02:00:21.705Z,7.03
2018-04-17T02:02:49.251Z,8.03
2018-04-17T02:05:16.773Z,9.57
2018-04-17T02:07:44.296Z,11.37
2018-04-17T02:10:11.812Z,9.53
2018-04-17T02:12:39.334Z,6.60
2018-04-17T02:15:06.861Z,11.87
2018-04-17T02:17:34.389Z,9.93
2018-04-17T02:20:01.913Z,8.23
2018-04-17T02:22:29.446Z,5.70
2018-04-17T02:24:56.961Z,8.87
2018-04-17T02:27:24.501Z,5.67
2018-04-17T02:29:52.044Z,12.43
2018-04-17T02:32:19.572Z,14.17
2018-04-17T02:34:47.099Z,13.27
2018-04-17T02:37:15.421Z,9.40
2018-04-17T02:39:42.945Z,12.43
2018-04-17T02:42:10.496Z,14.37
2018-04-17T02:44:38.036Z,8.87
2018-04-17T02:47:05.568Z,7.53
2018-04-17T02:49:33.088Z,10.03
2018-04-17T02:52:00.640Z,13.07
2018-04-17T02:54:28.172Z,10.60
2018-04-17T02:56:55.716Z,9.83
2018-04-17T02:59:23.232Z,11.10
2018-04-17T03:01:50.779Z,12.97
2018-04-17T03:04:18.310Z,12.13
2018-04-17T03:06:45.864Z,10.80
2018-04-17T03:09:13.397Z,15.27
2018-04-17T03:11:40.932Z,9.90
2018-04-17T03:14:08.455Z,9.60
2018-04-17T03:16:36.019Z,8.13
2018-04-17T03:19:03.554Z,10.63
2018-04-17T03:21:31.081Z,11.13
2018-04-17T03:23:59.401Z,9.47
2018-04-17T03:26:26.917Z,9.20
2018-04-17T03:28:54.457Z,13.50
2018-04-17T03:31:21.995Z,12.20
2018-04-17T03:33:50.328Z,11.33
2018-04-17T03:36:17.850Z,10.07
2018-04-17T03:38:45.383Z,12.33
2018-04-17T03:41:14.909Z,11.77
2018-04-17T03:43:42.448Z,9.77
2018-04-17T03:46:09.975Z,7.27
2018-04-17T03:48:38.285Z,8.90
2018-04-17T03:51:05.814Z,10.90
2018-04-17T03:53:33.351Z,10.77
2018-04-17T03:56:00.885Z,10.53
2018-04-17T03:58:28.433Z,8.77
2018-04-17T04:00:55.953Z,13.07
2018-04-17T04:03:23.504Z,11.47
2018-04-17T04:05:51.033Z,12.87
2018-04-17T04:08:18.571Z,11.40
2018-04-17T04:10:46.107Z,15.03
2018-04-17T04:13:13.669Z,11.27
2018-04-17T04:15:41.946Z,11.97
2018-04-17T04:18:21.356Z,13.17
2018-04-17T04:21:00.859Z,17.00
2018-04-17T04:23:41.180Z,11.40
2018-04-17T04:26:20.724Z,11.93
2018-04-17T04:28:48.280Z,10.97
2018-04-17T04:31:15.838Z,10.23
2018-04-17T04:33:44.134Z,13.10
2018-04-17T04:36:11.709Z,10.50
2018-04-17T04:38:39.240Z,9.17
2018-04-17T04:41:06.773Z,13.00
2018-04-17T04:43:34.344Z,15.37
2018-04-17T04:46:01.921Z,11.93
2018-04-17T04:48:29.454Z,13.90
2018-04-17T04:50:57.005Z,14.20
2018-04-17T04:53:24.551Z,11.30
2018-04-17T04:55:52.080Z,14.37
2018-04-17T04:58:19.624Z,11.17
2018-04-17T05:00:47.156Z,12.47
2018-04-17T05:03:14.679Z,9.87
2018-04-17T05:05:42.984Z,15.70
2018-04-17T05:08:10.540Z,11.33
2018-04-17T05:10:38.817Z,12.80
2018-04-17T05:13:06.412Z,11.20
2018-04-17T05:15:33.962Z,12.50
2018-04-17T05:18:01.512Z,14.33
2018-04-17T05:20:29.051Z,11.20
2018-04-17T05:22:56.575Z,15.93
2018-04-17T05:25:24.101Z,13.20
2018-04-17T05:27:51.627Z,13.10
2018-04-17T05:30:19.943Z,10.27
2018-04-17T05:32:47.496Z,10.83
2018-04-17T05:35:15.788Z,7.73
2018-04-17T05:37:44.089Z,13.83
2018-04-17T05:40:11.657Z,10.80
2018-04-17T05:42:39.174Z,9.00
2018-04-17T05:45:06.714Z,9.27
2018-04-17T05:47:34.262Z,9.50
2018-04-17T05:50:01.782Z,10.63
2018-04-17T05:52:29.316Z,7.00
2018-04-17T05:54:56.836Z,8.20
2018-04-17T05:57:24.363Z,7.57
2018-04-17T05:59:52.607Z,9.47
2018-04-17T06:02:20.120Z,8.37
2018-04-17T06:04:47.656Z,9.57
2018-04-17T06:07:15.171Z,12.90
2018-04-17T06:09:42.710Z,11.30
2018-04-17T06:12:10.241Z,12.40
2018-04-17T06:14:38.396Z,10.63
2018-04-17T06:17:05.954Z,10.43
2018-04-17T06:19:33.497Z,12.03
2018-04-17T06:22:01.041Z,9.80
2018-04-17T06:24:28.584Z,8.27
2018-04-17T06:26:56.137Z,10.40
2018-04-17T06:29:23.687Z,9.77
2018-04-17T06:31:51.213Z,7.87
2018-04-17T06:34:18.749Z,9.90
2018-04-17T06:36:47.053Z,8.33
2018-04-17T06:39:14.595Z,10.40
2018-04-17T06:41:42.969Z,11.50
2018-04-17T06:44:11.213Z,13.30
2018-04-17T06:46:38.748Z,12.90
2018-04-17T06:49:07.053Z,9.50
2018-04-17T06:51:34.589Z,9.03
2018-04-17T06:54:02.124Z,9.10
2018-04-17T06:56:29.651Z,13.60
2018-04-17T06:58:57.945Z,8.77
2018-04-17T07:01:26.262Z,9.50
2018-04-17T07:03:53.823Z,10.20
2018-04-17T07:06:21.363Z,11.67
2018-04-17T07:08:48.892Z,8.53
2018-04-17T07:11:16.436Z,9.87
2018-04-17T07:13:43.984Z,8.70
2018-04-17T07:16:12.298Z,11.97
2018-04-17T07:18:39.841Z,12.97
2018-04-17T07:21:07.368Z,9.53
2018-04-17T07:23:34.917Z,12.73
2018-04-17T07:26:02.465Z,11.53
2018-04-17T07:28:29.984Z,12.60
2018-04-17T07:30:57.517Z,7.47
2018-04-17T07:33:25.070Z,9.63
2018-04-17T07:35:53.370Z,9.13
2018-04-17T07:38:21.676Z,10.27
2018-04-17T07:40:49.210Z,11.77
2018-04-17T07:43:17.687Z,7.90
2018-04-17T07:45:45.235Z,12.47
2018-04-17T07:48:24.584Z,8.33
2018-04-17T07:50:52.131Z,11.47
2018-04-17T07:53:19.677Z,9.07
2018-04-17T07:55:47.976Z,9.10
2018-04-17T07:58:16.258Z,13.17
2018-04-17T08:00:44.580Z,9.57
2018-04-17T08:03:12.093Z,13.20
2018-04-17T08:05:39.637Z,8.83
2018-04-17T08:08:07.169Z,11.53
2018-04-17T08:10:35.474Z,13.00
2018-04-17T08:13:03.000Z,10.77
2018-04-17T08:15:30.556Z,9.50
2018-04-17T08:17:58.092Z,9.97
2018-04-17T08:20:25.663Z,8.37
2018-04-17T08:22:53.201Z,9.97
2018-04-17T08:25:20.741Z,11.60
2018-04-17T08:27:48.259Z,7.93
2018-04-17T08:30:15.818Z,12.30
2018-04-17T08:32:44.125Z,8.20
2018-04-17T08:35:12.424Z,6.67
2018-04-17T08:37:39.952Z,12.53
2018-04-17T08:40:07.501Z,10.93
2018-04-17T08:42:35.041Z,11.07
2018-04-17T08:45:02.583Z,11.30
2018-04-17T08:47:30.891Z,11.60
2018-04-17T08:49:59.194Z,15.37
2018-04-17T08:52:26.725Z,10.20
2018-04-17T08:54:54.272Z,12.50
2018-04-17T08:57:21.805Z,11.07
2018-04-17T08:59:49.342Z,14.03
2018-04-17T09:02:16.885Z,10.53
2018-04-17T09:04:44.431Z,7.90
2018-04-17T09:07:11.972Z,9.97
2018-04-17T09:09:40.280Z,10.17
2018-04-17T09:12:07.813Z,8.23
2018-04-17T09:14:36.256Z,8.47
2018-04-17T09:17:03.837Z,8.23
2018-04-17T09:19:32.092Z,7.77
2018-04-17T09:21:59.634Z,6.30
2018-04-17T09:24:27.179Z,7.27
2018-04-17T09:26:54.717Z,7.37
2018-04-17T09:29:22.491Z,6.40
2018-04-17T09:31:50.762Z,6.07
2018-04-17T09:34:19.068Z,5.40
2018-04-17T09:36:46.607Z,4.97
2018-04-17T09:39:14.200Z,6.35
2018-04-17T09:41:41.712Z,8.65
2018-04-17T09:44:09.259Z,8.00
2018-04-17T09:46:36.873Z,9.95
2018-04-17T09:49:04.414Z,7.60
2018-04-17T09:51:31.942Z,4.87
2018-04-17T09:53:59.475Z,6.75
2018-04-17T09:56:27.009Z,7.65
2018-04-17T09:58:54.555Z,7.57
2018-04-17T10:01:23.003Z,6.87
2018-04-17T10:03:50.527Z,6.82
2018-04-17T10:06:18.162Z,6.68
2018-04-17T10:08:45.763Z,6.68
2018-04-17T10:11:13.259Z,7.37
2018-04-17T10:13:40.800Z,7.72
2018-04-17T10:16:08.351Z,6.37
2018-04-17T10:18:35.886Z,6.95
2018-04-17T10:21:03.418Z,4.25
2018-04-17T10:23:30.993Z,7.83
2018-04-17T10:25:58.536Z,6.75
2018-04-17T10:28:26.090Z,6.72
2018-04-17T10:30:54.332Z,5.95
2018-04-17T10:33:22.629Z,7.17
2018-04-17T10:35:50.197Z,10.27
2018-04-17T10:38:18.513Z,6.47
2018-04-17T10:40:46.063Z,7.13
2018-04-17T10:43:14.376Z,7.67
2018-04-17T10:45:41.922Z,5.60
2018-04-17T10:48:10.222Z,5.17
2018-04-17T10:50:38.233Z,6.73
2018-04-17T10:53:05.801Z,4.78
2018-04-17T10:55:33.346Z,6.53
2018-04-17T10:58:01.724Z,6.03
2018-04-17T11:00:29.331Z,4.67
2018-04-17T11:02:56.949Z,4.23
2018-04-17T11:05:24.500Z,3.17
2018-04-17T11:07:52.072Z,4.57
2018-04-17T11:10:19.598Z,6.93
2018-04-17T11:12:47.134Z,4.20
2018-04-17T11:15:14.656Z,7.77
2018-04-17T11:17:42.208Z,5.63
2018-04-17T11:20:10.524Z,5.43
2018-04-17T11:22:38.052Z,5.97
2018-04-17T11:25:05.595Z,5.63
2018-04-17T11:27:33.153Z,5.70
2018-04-17T11:30:00.683Z,4.97
2018-04-17T11:32:29.045Z,4.80
2018-04-17T11:34:56.546Z,5.93
2018-04-17T11:37:24.831Z,7.73
2018-04-17T11:39:53.154Z,5.17
2018-04-17T11:42:20.665Z,4.33
2018-04-17T11:44:48.201Z,6.23
2018-04-17T11:47:15.726Z,4.73
2018-04-17T11:49:43.274Z,7.87
2018-04-17T11:52:10.805Z,6.10
2018-04-17T11:54:38.335Z,6.07
2018-04-17T11:57:06.646Z,5.50
2018-04-17T11:59:34.171Z,5.07
2018-04-17T12:02:01.704Z,3.70
2018-04-17T12:04:29.258Z,4.87
2018-04-17T12:06:57.574Z,5.07
2018-04-17T12:09:25.129Z,6.03
2018-04-17T12:11:52.681Z,5.27
2018-04-17T12:14:20.986Z,4.13
2018-04-17T12:16:49.280Z,5.37
2018-04-17T12:19:16.817Z,6.97
2018-04-17T12:21:44.355Z,4.23
2018-04-17T12:24:11.897Z,6.07
2018-04-17T12:26:39.445Z,5.90
2018-04-17T12:29:08.254Z,3.80
2018-04-17T12:31:35.849Z,5.83
2018-04-17T12:34:03.385Z,5.57
2018-04-17T12:36:31.686Z,5.90
2018-04-17T12:38:59.240Z,5.20
2018-04-17T12:41:27.551Z,6.07
2018-04-17T12:43:55.853Z,3.27
2018-04-17T12:46:23.408Z,4.43
2018-04-17T12:48:50.954Z,4.13
2018-04-17T12:51:18.487Z,3.00
2018-04-17T12:53:45.991Z,4.27
2018-04-17T12:56:13.536Z,2.57
2018-04-17T12:58:41.066Z,4.83
2018-04-17T13:01:08.625Z,4.93
2018-04-17T13:03:36.157Z,3.93
2018-04-17T13:06:03.811Z,7.80
2018-04-17T13:08:31.362Z,3.73
2018-04-17T13:10:59.665Z,4.80
2018-04-17T13:13:28.437Z,4.93
2018-04-17T13:15:56.735Z,3.93
2018-04-17T13:18:24.268Z,3.27
2018-04-17T13:20:51.822Z,4.03
2018-04-17T13:23:19.360Z,3.83
2018-04-17T13:25:47.657Z,5.00
2018-04-17T13:28:15.192Z,5.67
2018-04-17T13:30:42.736Z,4.47
2018-04-17T13:33:10.269Z,4.30
2018-04-17T13:35:38.016Z,4.83
2018-04-17T13:38:05.568Z,3.03
2018-04-17T13:40:33.147Z,2.87
2018-04-17T13:43:00.686Z,4.57
2018-04-17T13:45:28.243Z,3.93
2018-04-17T13:47:55.767Z,4.20
2018-04-17T13:50:23.485Z,2.93
2018-04-17T13:52:51.974Z,3.03
2018-04-17T13:55:19.553Z,3.17
2018-04-17T13:57:47.232Z,3.47
2018-04-17T14:00:14.745Z,2.67
2018-04-17T14:02:42.297Z,4.30
2018-04-17T14:05:09.827Z,3.00
2018-04-17T14:07:37.424Z,3.30
2018-04-17T14:10:04.973Z,2.90
2018-04-17T14:12:32.525Z,4.37
2018-04-17T14:15:00.028Z,3.53
2018-04-17T14:17:27.608Z,2.77
2018-04-17T14:19:55.096Z,4.20
2018-04-17T14:22:22.626Z,4.73
2018-04-17T14:24:50.161Z,4.03
2018-04-17T14:27:17.699Z,2.73
2018-04-17T14:29:45.238Z,4.23
2018-04-17T14:32:12.769Z,2.07
2018-04-17T14:34:40.328Z,2.93
2018-04-17T14:37:07.865Z,2.70
2018-04-17T14:39:35.401Z,3.00
2018-04-17T14:42:02.926Z,3.10
2018-04-17T14:44:30.446Z,3.60
2018-04-17T14:46:58.770Z,2.83
2018-04-17T14:49:26.307Z,2.83
2018-04-17T14:51:53.859Z,2.37
2018-04-17T14:54:21.407Z,3.77
2018-04-17T14:56:48.928Z,3.60
2018-04-17T14:59:16.473Z,3.57
2018-04-17T15:01:44.042Z,3.47
2018-04-17T15:04:11.593Z,3.53
2018-04-17T15:06:39.145Z,3.43
2018-04-17T15:09:07.436Z,4.23
2018-04-17T15:11:34.984Z,2.40
2018-04-17T15:14:03.278Z,3.83
2018-04-17T15:16:30.820Z,3.40
2018-04-17T15:18:58.347Z,4.80
2018-04-17T15:21:25.906Z,3.17
2018-04-17T15:23:53.436Z,3.00
2018-04-17T15:26:20.978Z,2.50
2018-04-17T15:28:48.515Z,4.40
2018-04-17T15:31:16.110Z,1.97
2018-04-17T15:33:43.700Z,2.73
2018-04-17T15:36:11.268Z,2.83
2018-04-17T15:38:38.818Z,3.80
2018-04-17T15:41:06.353Z,5.20
2018-04-17T15:43:34.639Z,2.57
2018-04-17T15:46:02.972Z,4.67
2018-04-17T15:48:30.503Z,4.57
2018-04-17T15:50:58.051Z,2.50
2018-04-17T15:53:25.588Z,3.27
2018-04-17T15:55:53.162Z,3.87
2018-04-17T16:01:14.063Z,4.13
2018-04-17T16:03:42.404Z,6.03
2018-04-17T16:06:09.937Z,3.57
2018-04-17T16:08:38.254Z,5.00
2018-04-17T16:11:05.793Z,5.57
2018-04-17T16:13:33.363Z,4.40
2018-04-17T16:16:01.676Z,4.10
2018-04-17T16:18:29.213Z,3.60
2018-04-17T16:20:56.758Z,2.60
2018-04-17T16:23:24.303Z,4.33
2018-04-17T16:25:51.839Z,2.97
2018-04-17T16:28:20.162Z,2.23
2018-04-17T16:30:47.724Z,4.63
2018-04-17T16:33:15.255Z,4.00
2018-04-17T16:35:42.817Z,3.07
2018-04-17T16:38:10.354Z,2.90
2018-04-17T16:40:38.096Z,2.87
2018-04-17T16:43:06.413Z,4.53
2018-04-17T16:45:33.975Z,3.40
2018-04-17T16:48:01.560Z,3.73
2018-04-17T16:50:29.030Z,4.60
2018-04-17T16:52:56.568Z,3.70
2018-04-17T16:55:24.869Z,3.73
2018-04-17T16:57:52.417Z,2.93
2018-04-17T17:00:19.936Z,4.43
2018-04-17T17:02:47.483Z,4.67
2018-04-17T17:05:15.002Z,3.97
2018-04-17T17:07:42.543Z,3.30
2018-04-17T17:10:10.073Z,3.20
2018-04-17T17:12:37.624Z,3.17
2018-04-17T17:15:05.145Z,4.27
2018-04-17T17:17:32.692Z,3.70
2018-04-17T17:20:00.235Z,3.17
2018-04-17T17:22:27.776Z,3.80
2018-04-17T17:24:55.316Z,4.60
2018-04-17T17:27:23.630Z,2.30
2018-04-17T17:29:51.174Z,5.43
2018-04-17T17:32:18.694Z,4.27
2018-04-17T17:34:46.221Z,2.93
2018-04-17T17:37:14.520Z,4.40
2018-04-17T17:39:42.046Z,3.97
2018-04-17T17:42:09.584Z,5.17
2018-04-17T17:44:37.123Z,3.47
2018-04-17T17:47:05.411Z,1.80
2018-04-17T17:49:33.720Z,3.17
2018-04-17T17:52:01.248Z,3.20
2018-04-17T17:54:28.793Z,4.70
2018-04-17T17:56:56.327Z,5.00
2018-04-17T17:59:23.861Z,3.97
2018-04-17T18:01:51.423Z,5.03
2018-04-17T18:04:18.948Z,3.33
2018-04-17T18:06:46.489Z,3.63
2018-04-17T18:09:14.018Z,4.53
2018-04-17T18:11:41.552Z,3.43
2018-04-17T18:14:09.844Z,4.87
2018-04-17T18:16:37.401Z,3.60
2018-04-17T18:19:05.716Z,2.17
2018-04-17T18:21:33.266Z,5.73
2018-04-17T18:24:01.558Z,8.53
2018-04-17T18:26:29.865Z,4.67
2018-04-17T18:28:57.433Z,2.77
2018-04-17T18:31:25.003Z,2.53
2018-04-17T18:33:52.529Z,4.87
2018-04-17T18:36:20.106Z,4.33
2018-04-17T18:38:47.653Z,2.40
2018-04-17T18:41:15.201Z,3.60
2018-04-17T18:43:42.736Z,5.67
2018-04-17T18:46:11.043Z,3.07
2018-04-17T18:48:39.333Z,4.77
2018-04-17T18:51:07.634Z,4.60
2018-04-17T18:53:35.188Z,4.97
2018-04-17T18:56:03.503Z,4.20
2018-04-17T18:58:31.045Z,2.67
2018-04-17T19:00:59.364Z,4.40
2018-04-17T19:03:26.943Z,5.43
2018-04-17T19:05:54.472Z,7.47
2018-04-17T19:08:22.789Z,4.53
2018-04-17T19:10:50.341Z,4.07
2018-04-17T19:13:17.873Z,2.90
2018-04-17T19:15:45.394Z,3.83
2018-04-17T19:18:12.963Z,3.40
2018-04-17T19:20:40.485Z,4.63
2018-04-17T19:23:08.059Z,4.40
2018-04-17T19:25:35.598Z,3.73
2018-04-17T19:28:03.133Z,3.23
2018-04-17T19:30:30.660Z,5.87
2018-04-17T19:32:59.422Z,5.33
2018-04-17T19:35:27.744Z,5.20
2018-04-17T19:37:55.314Z,3.40
2018-04-17T19:40:22.891Z,3.97
2018-04-17T19:42:50.524Z,7.03
2018-04-17T19:45:18.047Z,3.93
2018-04-17T19:47:45.726Z,4.17
2018-04-17T19:50:13.291Z,5.63
2018-04-17T19:52:40.832Z,6.13
2018-04-17T19:55:08.381Z,4.63
2018-04-17T19:57:35.912Z,4.73
2018-04-17T20:00:03.499Z,3.60
2018-04-17T20:02:31.077Z,4.80
2018-04-17T20:04:58.605Z,3.97
2018-04-17T20:07:26.181Z,4.50
2018-04-17T20:09:54.093Z,5.00
2018-04-17T20:12:21.616Z,3.37
2018-04-17T20:14:49.162Z,2.63
2018-04-17T20:17:17.499Z,4.77
2018-04-17T20:19:45.020Z,5.57
2018-04-17T20:22:13.324Z,4.33
2018-04-17T20:24:40.876Z,4.43
2018-04-17T20:27:08.401Z,3.57
2018-04-17T20:29:36.007Z,8.07
2018-04-17T20:32:03.577Z,5.37
2018-04-17T20:34:31.104Z,5.23
2018-04-17T20:36:58.646Z,3.40
2018-04-17T20:39:26.169Z,3.77
2018-04-17T20:41:53.723Z,6.37
2018-04-17T20:44:21.258Z,2.87
2018-04-17T20:46:48.815Z,4.67
2018-04-17T20:49:16.353Z,4.87
2018-04-17T20:51:43.890Z,6.87
2018-04-17T20:54:11.424Z,6.53
2018-04-17T20:56:38.953Z,6.73
2018-04-17T20:59:06.511Z,5.43
2018-04-17T21:01:34.067Z,4.63
2018-04-17T21:04:02.381Z,5.47
2018-04-17T21:06:29.919Z,6.77
2018-04-17T21:08:58.463Z,6.50
2018-04-17T21:11:26.020Z,5.70
2018-04-17T21:13:53.923Z,3.17
2018-04-17T21:16:21.445Z,7.10
2018-04-17T21:18:48.963Z,3.70
2018-04-17T21:21:16.501Z,4.47
2018-04-17T21:23:44.055Z,5.37
2018-04-17T21:26:12.360Z,3.17
2018-04-17T21:28:39.900Z,7.20
2018-04-17T21:31:07.442Z,6.03
2018-04-17T21:33:34.979Z,4.83
2018-04-17T21:36:02.571Z,5.33
2018-04-17T21:38:30.046Z,4.33
2018-04-17T21:40:57.610Z,7.23
2018-04-17T21:43:25.136Z,5.27
2018-04-17T21:45:52.668Z,6.07
2018-04-17T21:48:20.196Z,3.87
2018-04-17T21:50:47.739Z,6.73
2018-04-17T21:53:15.331Z,5.13
2018-04-17T21:55:43.620Z,7.40
2018-04-17T21:58:11.933Z,5.10
2018-04-17T22:00:39.463Z,5.93
2018-04-17T22:03:06.994Z,5.43
2018-04-17T22:05:34.516Z,4.17
2018-04-17T22:08:02.068Z,8.07
2018-04-17T22:10:29.591Z,7.50
2018-04-17T22:12:57.148Z,3.77
2018-04-17T22:15:24.681Z,7.43
2018-04-17T22:17:52.227Z,5.30
2018-04-17T22:20:19.738Z,7.47
2018-04-17T22:22:47.277Z,4.83
2018-04-17T22:25:14.806Z,5.17
2018-04-17T22:27:42.344Z,6.40
2018-04-17T22:30:09.860Z,4.03
2018-04-17T22:32:37.408Z,6.73
2018-04-17T22:35:05.696Z,4.67
2018-04-17T22:37:33.625Z,8.70
2018-04-17T22:40:01.170Z,8.00
2018-04-17T22:42:28.708Z,5.70
2018-04-17T22:44:56.245Z,6.03
2018-04-17T22:47:23.773Z,8.13
2018-04-17T22:49:51.302Z,6.03
2018-04-17T22:52:18.873Z,8.03
2018-04-17T22:54:46.419Z,9.90
2018-04-17T22:57:13.971Z,5.30
2018-04-17T22:59:46.366Z,7.87
2018-04-17T23:02:13.910Z,5.87
2018-04-17T23:04:42.226Z,5.70
2018-04-17T23:07:09.765Z,10.30
2018-04-17T23:09:38.099Z,6.00
2018-04-17T23:12:05.631Z,4.93
2018-04-17T23:14:33.936Z,4.67
2018-04-17T23:17:02.244Z,6.47
2018-04-17T23:19:29.765Z,7.17
2018-04-17T23:21:57.285Z,8.53
2018-04-17T23:24:24.814Z,5.67
2018-04-17T23:26:52.332Z,8.80
2018-04-17T23:29:19.913Z,4.80
2018-04-17T23:31:47.429Z,9.60
2018-04-17T23:34:15.723Z,5.63
2018-04-17T23:36:44.033Z,6.40
2018-04-17T23:39:12.337Z,5.93
2018-04-17T23:41:39.901Z,9.30
2018-04-17T23:44:07.456Z,5.57
2018-04-17T23:46:35.019Z,6.63
2018-04-17T23:49:03.301Z,7.87
2018-04-17T23:51:31.577Z,9.30
2018-04-17T23:53:59.116Z,9.63
2018-04-17T23:56:26.648Z,7.87
2018-04-17T23:58:54.197Z,6.77
